createdAt,value
2019-03-22T00:01:35.018Z,12.73
2019-03-22T00:06:30.310Z,10.30
2019-03-22T00:11:25.590Z,11.30
2019-03-22T00:16:21.167Z,10.57
2019-03-22T00:21:16.708Z,8.43
2019-03-22T00:26:11.976Z,13.00
2019-03-22T00:31:07.247Z,14.37
2019-03-22T00:36:02.774Z,14.97
2019-03-22T00:40:58.050Z,12.70
2019-03-22T00:45:53.350Z,14.40
2019-03-22T00:50:48.859Z,10.77
2019-03-22T00:55:44.203Z,10.60
2019-03-22T01:00:43.199Z,9.77
2019-03-22T01:05:39.214Z,11.43
2019-03-22T01:10:34.497Z,9.00
2019-03-22T01:15:29.758Z,10.77
2019-03-22T01:20:26.735Z,11.20
2019-03-22T01:25:22.034Z,12.53
2019-03-22T01:30:17.587Z,8.40
2019-03-22T01:35:12.937Z,8.83
2019-03-22T01:40:08.595Z,9.87
2019-03-22T01:45:04.093Z,10.90
2019-03-22T01:49:59.356Z,10.63
2019-03-22T01:54:54.638Z,9.93
2019-03-22T01:59:50.158Z,9.07
2019-03-22T02:04:45.605Z,7.67
2019-03-22T02:09:40.875Z,9.03
2019-03-22T02:14:37.099Z,8.00
2019-03-22T02:19:32.648Z,10.23
2019-03-22T02:24:27.917Z,10.63
2019-03-22T02:29:23.181Z,8.53
2019-03-22T02:34:24.472Z,10.37
2019-03-22T02:39:19.784Z,13.50
2019-03-22T02:44:14.996Z,11.03
2019-03-22T02:49:10.258Z,9.10
2019-03-22T02:54:05.706Z,11.07
2019-03-22T02:59:00.976Z,15.90
2019-03-22T03:03:56.274Z,12.07
2019-03-22T03:08:51.532Z,11.87
2019-03-22T03:13:46.811Z,11.73
2019-03-22T03:18:42.108Z,10.90
2019-03-22T03:23:37.381Z,10.53
2019-03-22T03:28:37.302Z,14.20
2019-03-22T03:33:29.875Z,10.97
2019-03-22T03:38:25.134Z,11.57
2019-03-22T03:43:20.441Z,12.83
2019-03-22T03:48:20.237Z,11.37
2019-03-22T03:53:15.744Z,13.20
2019-03-22T03:58:11.589Z,9.77
2019-03-22T04:03:06.939Z,12.73
2019-03-22T04:08:02.218Z,15.13
2019-03-22T04:12:57.485Z,12.90
2019-03-22T04:17:52.746Z,12.23
2019-03-22T04:22:48.017Z,9.97
2019-03-22T04:27:43.287Z,8.70
2019-03-22T04:32:38.539Z,9.20
2019-03-22T04:37:33.810Z,11.30
2019-03-22T04:42:29.153Z,11.10
2019-03-22T04:47:26.233Z,8.93
2019-03-22T04:52:23.042Z,8.53
2019-03-22T04:57:18.693Z,9.17
2019-03-22T05:02:14.536Z,10.87
2019-03-22T05:07:09.864Z,12.57
2019-03-22T05:12:05.326Z,10.73
2019-03-22T05:17:00.654Z,9.93
2019-03-22T05:21:56.299Z,10.70
2019-03-22T05:26:51.949Z,10.07
2019-03-22T05:32:07.883Z,11.13
2019-03-22T05:37:03.233Z,12.53
2019-03-22T05:41:58.518Z,11.77
2019-03-22T05:46:53.785Z,12.80
2019-03-22T05:51:49.048Z,9.80
2019-03-22T05:56:44.658Z,10.47
2019-03-22T06:01:40.092Z,11.47
2019-03-22T06:06:35.475Z,10.57
2019-03-22T06:11:30.762Z,11.13
2019-03-22T06:16:26.025Z,10.50
2019-03-22T06:21:21.594Z,14.30
2019-03-22T06:26:16.902Z,11.90
2019-03-22T06:31:12.251Z,9.67
2019-03-22T06:36:07.531Z,14.07
2019-03-22T06:41:02.846Z,12.83
2019-03-22T06:45:58.125Z,14.50
2019-03-22T06:50:53.419Z,16.60
2019-03-22T06:55:48.958Z,15.33
2019-03-22T07:00:44.245Z,15.60
2019-03-22T07:05:42.685Z,15.07
2019-03-22T07:10:37.949Z,13.13
2019-03-22T07:15:33.221Z,13.27
2019-03-22T07:20:28.499Z,14.17
2019-03-22T07:25:23.777Z,12.97
2019-03-22T07:30:19.704Z,14.60
2019-03-22T07:35:17.075Z,18.43
2019-03-22T07:40:12.760Z,14.23
2019-03-22T07:45:08.463Z,18.23
2019-03-22T07:50:03.919Z,23.07
2019-03-22T07:55:00.430Z,26.10
2019-03-22T07:59:55.894Z,20.03
2019-03-22T08:04:51.186Z,22.63
2019-03-22T08:09:46.642Z,26.03
2019-03-22T08:14:42.025Z,24.23
2019-03-22T08:19:37.637Z,21.47
2019-03-22T08:24:32.941Z,24.27
2019-03-22T08:29:30.198Z,21.67
2019-03-22T08:34:25.475Z,21.73
2019-03-22T08:39:20.814Z,27.37
2019-03-22T08:44:16.058Z,22.47
2019-03-22T08:49:11.413Z,21.37
2019-03-22T08:54:06.847Z,18.80
2019-03-22T08:59:02.126Z,23.83
2019-03-22T09:03:57.414Z,18.73
2019-03-22T09:08:52.774Z,20.57
2019-03-22T09:13:48.084Z,18.73
2019-03-22T09:18:43.332Z,23.27
2019-03-22T09:23:38.922Z,16.23
2019-03-22T09:28:35.337Z,16.27
2019-03-22T09:33:31.531Z,17.43
2019-03-22T09:38:28.687Z,15.10
2019-03-22T09:43:24.124Z,16.07
2019-03-22T09:48:19.358Z,10.40
2019-03-22T09:53:14.641Z,15.27
2019-03-22T09:58:09.912Z,12.40
2019-03-22T10:03:06.114Z,12.07
2019-03-22T10:08:01.455Z,16.80
2019-03-22T10:12:57.044Z,10.73
2019-03-22T10:17:52.332Z,10.53
2019-03-22T10:22:48.202Z,11.83
2019-03-22T10:27:44.646Z,8.73
2019-03-22T10:32:39.895Z,10.20
2019-03-22T10:37:35.162Z,12.33
2019-03-22T10:42:30.464Z,9.20
2019-03-22T10:47:25.743Z,8.43
2019-03-22T10:52:21.869Z,12.33
2019-03-22T10:57:17.149Z,9.33
2019-03-22T11:02:12.859Z,11.67
2019-03-22T11:07:08.203Z,8.63
2019-03-22T11:12:11.913Z,9.37
2019-03-22T11:17:00.509Z,8.00
2019-03-22T11:21:55.845Z,7.93
2019-03-22T11:26:51.116Z,8.13
2019-03-22T11:31:46.846Z,7.57
2019-03-22T11:36:43.160Z,6.50
2019-03-22T11:41:38.433Z,6.40
2019-03-22T11:46:33.730Z,6.15
2019-03-22T11:51:29.167Z,5.05
2019-03-22T11:56:24.690Z,6.53
2019-03-22T12:01:22.336Z,5.40
2019-03-22T12:06:16.997Z,4.78
2019-03-22T12:11:12.265Z,3.90
2019-03-22T12:16:09.590Z,3.95
2019-03-22T12:21:04.984Z,5.60
2019-03-22T12:26:06.445Z,4.90
2019-03-22T12:31:02.303Z,3.85
2019-03-22T12:35:57.630Z,3.08
2019-03-22T12:40:53.228Z,3.25
2019-03-22T12:45:48.861Z,6.15
2019-03-22T12:50:46.228Z,4.53
2019-03-22T12:55:41.855Z,2.35
2019-03-22T13:00:38.243Z,1.07
2019-03-22T13:05:37.385Z,1.22
2019-03-22T13:10:32.797Z,0.90
2019-03-22T13:15:28.128Z,1.50
2019-03-22T13:20:23.429Z,1.12
2019-03-22T13:25:21.006Z,1.10
2019-03-22T13:30:36.294Z,1.12
2019-03-22T13:35:31.578Z,1.77
2019-03-22T13:40:26.836Z,1.60
2019-03-22T13:45:22.431Z,1.82
2019-03-22T13:50:17.798Z,2.58
2019-03-22T13:55:13.097Z,1.57
2019-03-22T14:00:08.633Z,1.20
2019-03-22T14:05:04.551Z,1.10
2019-03-22T14:10:00.897Z,1.30
2019-03-22T14:14:56.168Z,2.30
2019-03-22T14:19:51.436Z,1.72
2019-03-22T14:24:46.706Z,1.90
2019-03-22T14:29:43.300Z,1.03
2019-03-22T14:34:38.599Z,0.90
2019-03-22T14:39:33.865Z,2.17
2019-03-22T14:44:29.691Z,1.10
2019-03-22T14:49:24.975Z,0.97
2019-03-22T14:54:20.305Z,1.12
2019-03-22T14:59:15.574Z,1.10
2019-03-22T15:04:10.835Z,1.30
2019-03-22T15:09:07.589Z,1.53
2019-03-22T15:14:20.622Z,1.73
2019-03-22T15:19:33.566Z,1.20
2019-03-22T15:25:02.930Z,1.00
2019-03-22T15:30:16.282Z,1.30
2019-03-22T15:35:29.743Z,2.93
2019-03-22T15:40:27.009Z,1.90
2019-03-22T15:45:22.527Z,1.23
2019-03-22T15:50:20.152Z,1.63
2019-03-22T15:55:15.510Z,1.70
2019-03-22T16:00:13.434Z,2.10
2019-03-22T16:05:08.907Z,2.27
2019-03-22T16:10:04.303Z,1.80
2019-03-22T16:14:59.570Z,1.50
2019-03-22T16:19:54.840Z,1.70
2019-03-22T16:24:50.100Z,1.70
2019-03-22T16:29:45.361Z,1.80
2019-03-22T16:34:40.966Z,3.63
2019-03-22T16:39:36.229Z,2.10
2019-03-22T16:44:31.548Z,2.47
2019-03-22T16:49:26.818Z,3.97
2019-03-22T16:54:24.083Z,5.17
2019-03-22T16:59:25.139Z,3.40
2019-03-22T17:04:20.415Z,3.27
2019-03-22T17:09:15.672Z,2.70
2019-03-22T17:14:11.178Z,2.97
2019-03-22T17:19:06.562Z,3.30
2019-03-22T17:24:01.986Z,2.60
2019-03-22T17:28:57.529Z,2.50
2019-03-22T17:33:53.066Z,8.63
2019-03-22T17:38:48.333Z,2.33
2019-03-22T17:43:43.610Z,2.47
2019-03-22T17:48:38.968Z,6.07
2019-03-22T17:53:34.249Z,4.87
2019-03-22T17:58:29.582Z,3.40
2019-03-22T18:03:24.907Z,2.83
2019-03-22T18:08:25.985Z,7.73
2019-03-22T18:13:21.259Z,3.57
2019-03-22T18:18:19.630Z,3.03
2019-03-22T18:23:16.893Z,5.73
2019-03-22T18:28:12.479Z,6.40
2019-03-22T18:33:07.739Z,7.83
2019-03-22T18:38:03.182Z,3.47
2019-03-22T18:42:59.825Z,4.23
2019-03-22T18:47:57.583Z,5.50
2019-03-22T18:52:53.154Z,4.83
2019-03-22T18:57:54.410Z,7.00
2019-03-22T19:02:49.723Z,2.83
2019-03-22T19:07:46.986Z,4.87
2019-03-22T19:12:42.665Z,3.30
2019-03-22T19:17:37.969Z,3.00
2019-03-22T19:22:39.063Z,4.83
2019-03-22T19:27:34.620Z,4.73
2019-03-22T19:32:29.896Z,4.27
2019-03-22T19:37:25.145Z,5.00
2019-03-22T19:42:26.302Z,7.17
2019-03-22T19:47:21.938Z,7.23
2019-03-22T19:52:17.559Z,3.50
2019-03-22T19:57:12.829Z,4.40
2019-03-22T20:02:08.152Z,6.33
2019-03-22T20:07:03.416Z,7.37
2019-03-22T20:11:58.689Z,11.93
2019-03-22T20:16:53.973Z,8.93
2019-03-22T20:21:49.241Z,8.83
2019-03-22T20:26:44.504Z,6.67
2019-03-22T20:31:40.119Z,8.77
2019-03-22T20:36:35.628Z,6.63
2019-03-22T20:41:30.896Z,6.77
2019-03-22T20:46:26.195Z,7.43
2019-03-22T20:51:23.487Z,5.40
2019-03-22T20:56:18.821Z,8.27
2019-03-22T21:01:14.419Z,6.53
2019-03-22T21:06:10.710Z,7.57
2019-03-22T21:11:06.218Z,7.23
2019-03-22T21:16:01.485Z,7.17
2019-03-22T21:20:56.761Z,5.13
2019-03-22T21:25:52.005Z,5.67
2019-03-22T21:30:47.270Z,4.67
2019-03-22T21:35:42.526Z,5.80
2019-03-22T21:40:38.824Z,6.03
2019-03-22T21:45:34.081Z,4.50
2019-03-22T21:50:29.339Z,5.60
2019-03-22T21:55:25.592Z,5.17
2019-03-22T22:00:21.251Z,6.50
2019-03-22T22:05:16.513Z,5.43
2019-03-22T22:10:11.907Z,5.53
2019-03-22T22:15:10.253Z,5.70
2019-03-22T22:20:05.908Z,5.33
2019-03-22T22:25:01.172Z,7.57
2019-03-22T22:29:57.416Z,6.80
2019-03-22T22:34:52.668Z,6.07
2019-03-22T22:39:47.980Z,8.47
2019-03-22T22:44:43.326Z,7.33
2019-03-22T22:49:38.961Z,6.73
2019-03-22T22:54:34.526Z,6.10
2019-03-22T22:59:29.787Z,6.13
2019-03-22T23:04:25.091Z,7.60
2019-03-22T23:09:20.369Z,6.03
2019-03-22T23:14:17.273Z,10.13
2019-03-22T23:19:12.535Z,10.07
2019-03-22T23:24:07.784Z,7.27
2019-03-22T23:29:03.034Z,7.50
2019-03-22T23:33:58.313Z,8.30
2019-03-22T23:38:53.893Z,9.83
2019-03-22T23:43:49.504Z,6.70
2019-03-22T23:48:45.147Z,5.27
2019-03-22T23:53:40.404Z,5.27
2019-03-22T23:58:35.662Z,6.13
